ESNN/SDL METAR and TAF weather

Enter ICAO airport designator
Station Type Date Time Source
ESNN METAR 2021/07/30 08:20 UTC NOAA

ESNN 300820Z AUTO 15003KT 120V190 9999 FEW019/// SCT220/// 18/12 Q0991


Station Type Date Time Source
ESNN Decoded METAR 2021/07/30 08:20 UTC NOAA

Sundsvall-Harnosand Flygplats, Sweden (ESNN) 62-32N 017-27E 10M
Jul 30, 2021 - 04:20 AM EDT / 2021.07.30 0820 UTC
Wind: from the SSE (150 degrees) at 3 MPH (3 KT) (direction variable):0
Visibility: greater than 7 mile(s):0
Sky conditions: partly cloudy
Temperature: 64 F (18 C)
Dew Point: 53 F (12 C)
Relative Humidity: 67%
Pressure (altimeter): 29.26 in. Hg (0991 hPa)
ob: ESNN 300820Z AUTO 15003KT 120V190 9999 FEW019/// SCT220/// 18/12 Q0991
cycle: 8

Station Type Date Time Source
ESNN TAF 2016/05/29 09:33 UTC NOAA

TAF TAF ESNN 290830Z 2909/3018 07006KT 9999 SCT045
BECMG 2913/2915 14010KT

Example: see airport list